createdAt,value
2022-09-29T00:00:30.978Z,7.50
2022-09-29T00:01:31.034Z,7.50
2022-09-29T00:02:30.950Z,7.47
2022-09-29T00:03:31.086Z,7.45
2022-09-29T00:04:30.927Z,7.42
2022-09-29T00:05:30.918Z,7.45
2022-09-29T00:06:30.898Z,7.47
2022-09-29T00:07:30.892Z,7.45
2022-09-29T00:08:30.871Z,7.45
2022-09-29T00:09:30.883Z,7.45
2022-09-29T00:10:30.850Z,7.42
2022-09-29T00:11:30.837Z,7.42
2022-09-29T00:12:30.822Z,7.43
2022-09-29T00:13:30.817Z,7.45
2022-09-29T00:14:30.796Z,7.42
2022-09-29T00:15:30.788Z,7.42
2022-09-29T00:16:30.823Z,7.40
2022-09-29T00:17:30.757Z,7.40
2022-09-29T00:18:30.743Z,7.40
2022-09-29T00:19:30.734Z,7.42
2022-09-29T00:20:30.718Z,7.42
2022-09-29T00:21:30.708Z,7.42
2022-09-29T00:22:30.688Z,7.43
2022-09-29T00:23:30.681Z,7.45
2022-09-29T00:24:30.664Z,7.47
2022-09-29T00:25:30.676Z,7.47
2022-09-29T00:26:30.641Z,7.45
2022-09-29T00:27:30.626Z,7.48
2022-09-29T00:28:30.612Z,7.48
2022-09-29T00:29:30.603Z,7.47
2022-09-29T00:30:30.594Z,7.48
2022-09-29T00:31:30.621Z,7.48
2022-09-29T00:32:30.569Z,7.48
2022-09-29T00:33:30.557Z,7.51
2022-09-29T00:34:30.536Z,7.54
2022-09-29T00:35:30.530Z,7.54
2022-09-29T00:36:30.515Z,7.56
2022-09-29T00:37:30.501Z,7.57
2022-09-29T00:38:30.497Z,7.57
2022-09-29T00:39:30.475Z,7.58
2022-09-29T00:40:30.500Z,7.57
2022-09-29T00:41:30.476Z,7.58
2022-09-29T00:42:30.433Z,7.60
2022-09-29T00:43:30.426Z,7.61
2022-09-29T00:44:30.410Z,7.63
2022-09-29T00:45:30.427Z,7.66
2022-09-29T00:46:30.383Z,7.63
2022-09-29T00:47:30.372Z,7.63
2022-09-29T00:48:30.357Z,7.61
2022-09-29T00:49:30.345Z,7.58
2022-09-29T00:50:30.338Z,7.56
2022-09-29T00:51:30.321Z,7.57
2022-09-29T00:52:30.308Z,7.56
2022-09-29T00:53:30.294Z,7.54
2022-09-29T00:54:30.280Z,7.53
2022-09-29T00:55:30.269Z,7.53
2022-09-29T00:56:30.253Z,7.53
2022-09-29T00:57:30.267Z,7.53
2022-09-29T00:58:30.232Z,7.53
2022-09-29T00:59:30.211Z,7.56
2022-09-29T01:00:30.243Z,7.56
2022-09-29T01:01:30.195Z,7.56
2022-09-29T01:02:30.242Z,7.56
2022-09-29T01:03:30.169Z,7.57
2022-09-29T01:04:30.152Z,7.58
2022-09-29T01:05:30.137Z,7.54
2022-09-29T01:06:30.132Z,7.53
2022-09-29T01:07:30.116Z,7.51
2022-09-29T01:08:30.102Z,7.51
2022-09-29T01:09:30.090Z,7.48
2022-09-29T01:10:30.078Z,7.48
2022-09-29T01:11:30.064Z,7.50
2022-09-29T01:12:30.055Z,7.51
2022-09-29T01:13:30.057Z,7.51
2022-09-29T01:14:30.025Z,7.51
2022-09-29T01:15:30.016Z,7.50
2022-09-29T01:16:30.074Z,7.50
2022-09-29T01:17:29.991Z,7.50
2022-09-29T01:18:29.968Z,7.50
2022-09-29T01:19:29.959Z,7.48
2022-09-29T01:20:29.945Z,7.50
2022-09-29T01:21:29.933Z,7.50
2022-09-29T01:22:29.919Z,7.50
2022-09-29T01:23:29.906Z,7.51
2022-09-29T01:24:29.895Z,7.56
2022-09-29T01:25:29.880Z,7.56
2022-09-29T01:26:29.865Z,7.57
2022-09-29T01:27:29.854Z,7.57
2022-09-29T01:28:29.843Z,7.58
2022-09-29T01:29:29.851Z,7.60
2022-09-29T01:30:29.816Z,7.61
2022-09-29T01:31:29.869Z,7.63
2022-09-29T01:32:29.790Z,7.66
2022-09-29T01:33:29.779Z,7.67
2022-09-29T01:34:29.767Z,7.69
2022-09-29T01:35:29.752Z,7.69
2022-09-29T01:36:29.737Z,7.69
2022-09-29T01:37:29.722Z,7.67
2022-09-29T01:38:29.715Z,7.63
2022-09-29T01:39:29.699Z,7.60
2022-09-29T01:40:29.793Z,7.56
2022-09-29T01:41:29.681Z,7.54
2022-09-29T01:42:29.662Z,7.53
2022-09-29T01:43:29.651Z,7.51
2022-09-29T01:44:29.632Z,7.50
2022-09-29T01:45:29.683Z,7.50
2022-09-29T01:46:29.606Z,7.48
2022-09-29T01:47:29.603Z,7.50
2022-09-29T01:48:29.581Z,7.51
2022-09-29T01:49:29.572Z,7.53
2022-09-29T01:50:29.554Z,7.53
2022-09-29T01:51:29.545Z,7.54
2022-09-29T01:52:29.534Z,7.56
2022-09-29T01:53:29.516Z,7.56
2022-09-29T01:54:29.501Z,7.57
2022-09-29T01:55:29.489Z,7.57
2022-09-29T01:56:29.478Z,7.57
2022-09-29T01:57:29.472Z,7.58
2022-09-29T01:58:29.458Z,7.57
2022-09-29T01:59:29.443Z,7.57
2022-09-29T02:00:29.541Z,7.58
2022-09-29T02:01:29.440Z,7.57
2022-09-29T02:02:29.493Z,7.60
2022-09-29T02:03:29.399Z,7.61
2022-09-29T02:04:29.377Z,7.61
2022-09-29T02:05:29.362Z,7.60
2022-09-29T02:06:29.350Z,7.61
2022-09-29T02:07:29.342Z,7.60
2022-09-29T02:08:29.329Z,7.60
2022-09-29T02:09:29.311Z,7.61
2022-09-29T02:10:29.302Z,7.61
2022-09-29T02:11:29.292Z,7.61
2022-09-29T02:12:29.272Z,7.58
2022-09-29T02:13:29.260Z,7.57
2022-09-29T02:14:29.247Z,7.57
2022-09-29T02:15:29.234Z,7.56
2022-09-29T02:16:29.283Z,7.57
2022-09-29T02:17:29.251Z,7.58
2022-09-29T02:18:29.195Z,7.57
2022-09-29T02:19:29.179Z,7.57
2022-09-29T02:20:29.167Z,7.57
2022-09-29T02:21:29.153Z,7.58
2022-09-29T02:22:29.144Z,7.60
2022-09-29T02:23:29.135Z,7.60
2022-09-29T02:24:29.118Z,7.60
2022-09-29T02:25:29.105Z,7.61
2022-09-29T02:26:29.089Z,7.60
2022-09-29T02:27:29.079Z,7.60
2022-09-29T02:28:29.064Z,7.60
2022-09-29T02:29:29.050Z,7.61
2022-09-29T02:30:29.040Z,7.61
2022-09-29T02:31:29.077Z,7.60
2022-09-29T02:32:29.012Z,7.63
2022-09-29T02:33:29.029Z,7.63
2022-09-29T02:34:28.990Z,7.61
2022-09-29T02:35:28.976Z,7.66
2022-09-29T02:36:28.962Z,7.67
2022-09-29T02:37:28.946Z,7.67
2022-09-29T02:38:28.934Z,7.66
2022-09-29T02:39:28.924Z,7.66
2022-09-29T02:40:28.962Z,7.61
2022-09-29T02:41:28.895Z,7.63
2022-09-29T02:42:28.881Z,7.61
2022-09-29T02:43:28.873Z,7.61
2022-09-29T02:44:28.857Z,7.63
2022-09-29T02:45:28.903Z,7.63
2022-09-29T02:46:28.832Z,7.61
2022-09-29T02:47:28.822Z,7.61
2022-09-29T02:48:28.809Z,7.60
2022-09-29T02:49:28.821Z,7.63
2022-09-29T02:50:28.781Z,7.63
2022-09-29T02:51:28.768Z,7.61
2022-09-29T02:52:28.755Z,7.61
2022-09-29T02:53:28.742Z,7.61
2022-09-29T02:54:28.732Z,7.63
2022-09-29T02:55:28.712Z,7.63
2022-09-29T02:56:28.706Z,7.61
2022-09-29T02:57:28.693Z,7.61
2022-09-29T02:58:28.679Z,7.61
2022-09-29T02:59:28.663Z,7.60
2022-09-29T03:00:28.655Z,7.58
2022-09-29T03:01:28.638Z,7.57
2022-09-29T03:02:28.627Z,7.57
2022-09-29T03:03:28.703Z,7.58
2022-09-29T03:04:28.602Z,7.58
2022-09-29T03:05:28.618Z,7.58
2022-09-29T03:06:28.573Z,7.60
2022-09-29T03:07:28.566Z,7.57
2022-09-29T03:08:28.547Z,7.56
2022-09-29T03:09:28.541Z,7.54
2022-09-29T03:10:30.364Z,7.53
2022-09-29T03:11:28.510Z,7.53
2022-09-29T03:12:28.500Z,7.51
2022-09-29T03:13:28.483Z,7.51
2022-09-29T03:14:28.471Z,7.53
2022-09-29T03:15:28.461Z,7.48
2022-09-29T03:16:28.499Z,7.51
2022-09-29T03:17:28.432Z,7.50
2022-09-29T03:18:28.419Z,7.48
2022-09-29T03:19:28.407Z,7.47
2022-09-29T03:20:28.396Z,7.48
2022-09-29T03:21:28.409Z,7.48
2022-09-29T03:22:28.367Z,7.48
2022-09-29T03:23:28.354Z,7.47
2022-09-29T03:24:28.342Z,7.48
2022-09-29T03:25:28.334Z,7.47
2022-09-29T03:26:28.319Z,7.47
2022-09-29T03:27:28.303Z,7.47
2022-09-29T03:28:28.294Z,7.47
2022-09-29T03:29:28.277Z,7.43
2022-09-29T03:30:28.265Z,7.39
2022-09-29T03:31:28.343Z,7.38
2022-09-29T03:32:28.236Z,7.36
2022-09-29T03:33:28.223Z,7.36
2022-09-29T03:34:28.219Z,7.36
2022-09-29T03:35:28.199Z,7.35
2022-09-29T03:36:28.210Z,7.35
2022-09-29T03:37:28.199Z,7.33
2022-09-29T03:38:28.159Z,7.35
2022-09-29T03:39:28.148Z,7.35
2022-09-29T03:40:28.170Z,7.35
2022-09-29T03:41:28.125Z,7.36
2022-09-29T03:42:28.110Z,7.36
2022-09-29T03:43:28.094Z,7.39
2022-09-29T03:44:28.081Z,7.39
2022-09-29T03:45:28.145Z,7.39
2022-09-29T03:46:28.059Z,7.40
2022-09-29T03:47:28.046Z,7.38
2022-09-29T03:48:28.029Z,7.40
2022-09-29T03:49:28.017Z,7.42
2022-09-29T03:50:28.002Z,7.42
2022-09-29T03:51:27.992Z,7.40
2022-09-29T03:52:27.978Z,7.40
2022-09-29T03:53:27.989Z,7.39
2022-09-29T03:54:27.955Z,7.38
2022-09-29T03:55:27.939Z,7.36
2022-09-29T03:56:27.930Z,7.33
2022-09-29T03:57:27.916Z,7.35
2022-09-29T03:58:27.902Z,7.35
2022-09-29T03:59:27.888Z,7.32
2022-09-29T04:00:27.874Z,7.31
2022-09-29T04:01:27.862Z,7.32
2022-09-29T04:02:27.899Z,7.32
2022-09-29T04:03:27.836Z,7.33
2022-09-29T04:04:27.825Z,7.36
2022-09-29T04:05:27.813Z,7.38
2022-09-29T04:06:27.800Z,7.38
2022-09-29T04:07:27.789Z,7.39
2022-09-29T04:08:27.774Z,7.39
2022-09-29T04:09:27.783Z,7.38
2022-09-29T04:10:27.753Z,7.36
2022-09-29T04:11:27.732Z,7.36
2022-09-29T04:12:27.720Z,7.38
2022-09-29T04:13:27.708Z,7.39
2022-09-29T04:14:27.695Z,7.39
2022-09-29T04:15:27.678Z,7.39
2022-09-29T04:16:27.732Z,7.39
2022-09-29T04:17:27.659Z,7.39
2022-09-29T04:18:27.647Z,7.36
2022-09-29T04:19:27.633Z,7.38
2022-09-29T04:20:27.617Z,7.33
2022-09-29T04:21:27.604Z,7.33
2022-09-29T04:22:27.591Z,7.33
2022-09-29T04:23:27.578Z,7.33
2022-09-29T04:24:27.562Z,7.32
2022-09-29T04:25:27.575Z,7.31
2022-09-29T04:26:27.539Z,7.32
2022-09-29T04:27:27.532Z,7.33
2022-09-29T04:28:27.512Z,7.33
2022-09-29T04:29:27.499Z,7.35
2022-09-29T04:30:27.490Z,7.36
2022-09-29T04:31:27.509Z,7.35
2022-09-29T04:32:27.461Z,7.33
2022-09-29T04:33:27.449Z,7.35
2022-09-29T04:34:27.437Z,7.36
2022-09-29T04:35:27.438Z,7.36
2022-09-29T04:36:27.410Z,7.36
2022-09-29T04:37:27.404Z,7.39
2022-09-29T04:38:27.385Z,7.39
2022-09-29T04:39:27.371Z,7.39
2022-09-29T04:40:27.578Z,7.39
2022-09-29T04:41:27.369Z,7.40
2022-09-29T04:42:27.333Z,7.39
2022-09-29T04:43:27.317Z,7.40
2022-09-29T04:44:27.307Z,7.36
2022-09-29T04:45:27.333Z,7.38
2022-09-29T04:46:27.286Z,7.39
2022-09-29T04:47:27.271Z,7.40
2022-09-29T04:48:27.258Z,7.42
2022-09-29T04:49:27.249Z,7.42
2022-09-29T04:50:27.230Z,7.42
2022-09-29T04:51:27.417Z,7.40
2022-09-29T04:52:27.202Z,7.40
2022-09-29T04:53:27.195Z,7.39
2022-09-29T04:54:27.179Z,7.38
2022-09-29T04:55:27.363Z,7.40
2022-09-29T04:56:27.149Z,7.40
2022-09-29T04:57:27.224Z,7.42
2022-09-29T04:58:27.133Z,7.43
2022-09-29T04:59:27.111Z,7.43
2022-09-29T05:00:27.102Z,7.40
2022-09-29T05:01:27.175Z,7.40
2022-09-29T05:02:27.184Z,7.42
2022-09-29T05:03:27.067Z,7.42
2022-09-29T05:04:27.044Z,7.43
2022-09-29T05:05:27.033Z,7.43
2022-09-29T05:06:27.022Z,7.43
2022-09-29T05:07:27.020Z,7.43
2022-09-29T05:08:27.033Z,7.45
2022-09-29T05:09:31.112Z,7.45
2022-09-29T05:10:27.999Z,7.47
2022-09-29T05:11:26.961Z,7.47
2022-09-29T05:12:26.948Z,7.47
2022-09-29T05:13:26.964Z,7.48
2022-09-29T05:14:26.920Z,7.47
2022-09-29T05:15:26.905Z,7.45
2022-09-29T05:16:26.933Z,7.43
2022-09-29T05:17:26.879Z,7.43
2022-09-29T05:18:26.863Z,7.43
2022-09-29T05:19:26.854Z,7.43
2022-09-29T05:20:30.753Z,7.40
2022-09-29T05:21:29.175Z,7.39
2022-09-29T05:22:26.818Z,7.42
2022-09-29T05:23:26.802Z,7.40
2022-09-29T05:24:26.790Z,7.40
2022-09-29T05:25:26.778Z,7.42
2022-09-29T05:26:26.767Z,7.43
2022-09-29T05:27:26.752Z,7.42
2022-09-29T05:28:26.739Z,7.43
2022-09-29T05:29:26.855Z,7.42
2022-09-29T05:30:26.713Z,7.45
2022-09-29T05:31:26.805Z,7.43
2022-09-29T05:32:26.688Z,7.43
2022-09-29T05:33:26.671Z,7.42
2022-09-29T05:34:26.663Z,7.45
2022-09-29T05:35:26.649Z,7.45
2022-09-29T05:36:26.633Z,7.45
2022-09-29T05:37:26.626Z,7.45
2022-09-29T05:38:26.613Z,7.45
2022-09-29T05:39:26.600Z,7.43
2022-09-29T05:40:26.677Z,7.45
2022-09-29T05:41:26.566Z,7.45
2022-09-29T05:42:26.560Z,7.43
2022-09-29T05:43:26.544Z,7.45
2022-09-29T05:44:26.534Z,7.45
2022-09-29T05:45:26.611Z,7.47
2022-09-29T05:46:26.506Z,7.48
2022-09-29T05:47:26.496Z,7.50
2022-09-29T05:48:26.480Z,7.51
2022-09-29T05:49:26.551Z,7.51
2022-09-29T05:50:26.455Z,7.56
2022-09-29T05:51:26.446Z,7.56
2022-09-29T05:52:26.429Z,7.56
2022-09-29T05:53:26.413Z,7.56
2022-09-29T05:54:26.403Z,7.57
2022-09-29T05:55:26.794Z,7.56
2022-09-29T05:56:26.378Z,7.56
2022-09-29T05:57:26.362Z,7.54
2022-09-29T05:58:26.352Z,7.57
2022-09-29T05:59:26.338Z,7.56
2022-09-29T06:00:26.333Z,7.56
2022-09-29T06:01:26.442Z,7.58
2022-09-29T06:02:26.432Z,7.58
2022-09-29T06:03:26.286Z,7.57
2022-09-29T06:04:26.280Z,7.58
2022-09-29T06:05:26.263Z,7.58
2022-09-29T06:06:26.248Z,7.58
2022-09-29T06:07:26.237Z,7.58
2022-09-29T06:08:26.222Z,7.60
2022-09-29T06:09:26.215Z,7.60
2022-09-29T06:10:26.390Z,7.60
2022-09-29T06:11:26.183Z,7.58
2022-09-29T06:12:26.167Z,7.58
2022-09-29T06:13:26.156Z,7.60
2022-09-29T06:14:26.143Z,7.60
2022-09-29T06:15:26.130Z,7.61
2022-09-29T06:16:26.227Z,7.61
2022-09-29T06:17:26.144Z,7.60
2022-09-29T06:18:26.095Z,7.57
2022-09-29T06:19:26.078Z,7.57
2022-09-29T06:20:26.068Z,7.54
2022-09-29T06:21:26.061Z,7.56
2022-09-29T06:22:26.239Z,7.54
2022-09-29T06:23:26.021Z,7.57
2022-09-29T06:24:26.016Z,7.58
2022-09-29T06:25:26.008Z,7.61
2022-09-29T06:26:25.993Z,7.60
2022-09-29T06:27:25.973Z,7.58
2022-09-29T06:28:26.191Z,7.57
2022-09-29T06:29:25.955Z,7.57
2022-09-29T06:30:25.939Z,7.60
2022-09-29T06:31:25.999Z,7.60
2022-09-29T06:32:25.920Z,7.60
2022-09-29T06:33:25.919Z,7.61
2022-09-29T06:34:25.888Z,7.63
2022-09-29T06:35:25.878Z,7.63
2022-09-29T06:36:25.859Z,7.66
2022-09-29T06:37:25.851Z,7.67
2022-09-29T06:38:25.832Z,7.69
2022-09-29T06:39:26.012Z,7.67
2022-09-29T06:40:25.941Z,7.67
2022-09-29T06:41:25.795Z,7.66
2022-09-29T06:42:25.783Z,7.67
2022-09-29T06:43:25.769Z,7.69
2022-09-29T06:44:25.766Z,7.69
2022-09-29T06:45:25.946Z,7.70
2022-09-29T06:46:25.734Z,7.73
2022-09-29T06:47:25.912Z,7.73
2022-09-29T06:48:25.707Z,7.76
2022-09-29T06:49:25.802Z,7.77
2022-09-29T06:50:25.683Z,7.80
2022-09-29T06:51:37.871Z,7.82
2022-09-29T06:52:29.934Z,7.85
2022-09-29T06:53:36.617Z,7.82
2022-09-29T06:54:26.867Z,7.85
2022-09-29T06:55:25.616Z,7.85
2022-09-29T06:56:31.609Z,7.87
2022-09-29T06:57:25.587Z,7.88
2022-09-29T06:58:25.580Z,7.90
2022-09-29T06:59:25.567Z,7.88
2022-09-29T07:00:25.555Z,7.87
2022-09-29T07:01:25.596Z,7.88
2022-09-29T07:02:25.602Z,7.82
2022-09-29T07:03:25.515Z,7.77
2022-09-29T07:04:25.499Z,7.79
2022-09-29T07:05:25.498Z,7.80
2022-09-29T07:06:25.506Z,7.82
2022-09-29T07:07:25.457Z,7.85
2022-09-29T07:08:25.643Z,7.85
2022-09-29T07:09:25.435Z,7.87
2022-09-29T07:10:25.605Z,7.90
2022-09-29T07:11:25.422Z,7.91
2022-09-29T07:12:25.404Z,7.93
2022-09-29T07:13:25.376Z,7.94
2022-09-29T07:14:25.379Z,7.95
2022-09-29T07:15:25.350Z,7.97
2022-09-29T07:16:25.505Z,8.00
2022-09-29T07:17:25.327Z,8.01
2022-09-29T07:18:25.340Z,8.00
2022-09-29T07:19:25.550Z,8.00
2022-09-29T07:20:25.285Z,8.01
2022-09-29T07:21:25.346Z,8.01
2022-09-29T07:22:25.263Z,8.01
2022-09-29T07:23:25.290Z,8.03
2022-09-29T07:24:25.244Z,8.08
2022-09-29T07:25:47.299Z,8.09
2022-09-29T07:26:32.247Z,8.09
2022-09-29T07:27:25.407Z,8.10
2022-09-29T07:28:25.184Z,8.13
2022-09-29T07:29:25.386Z,8.18
2022-09-29T07:30:36.627Z,8.20
2022-09-29T07:31:26.337Z,8.24
2022-09-29T07:32:28.405Z,8.23
2022-09-29T07:33:36.670Z,8.18
2022-09-29T07:34:26.149Z,8.16
2022-09-29T07:35:25.096Z,8.19
2022-09-29T07:36:25.092Z,8.20
2022-09-29T07:37:25.135Z,8.20
2022-09-29T07:38:25.058Z,8.20
2022-09-29T07:39:25.047Z,8.23
2022-09-29T07:40:25.090Z,8.24
2022-09-29T07:41:25.217Z,8.26
2022-09-29T07:42:25.005Z,8.27
2022-09-29T07:43:24.996Z,8.27
2022-09-29T07:44:24.988Z,8.30
2022-09-29T07:45:24.975Z,8.36
2022-09-29T07:46:25.041Z,8.37
2022-09-29T07:47:24.948Z,8.41
2022-09-29T07:48:29.125Z,8.46
2022-09-29T07:49:25.948Z,8.48
2022-09-29T07:50:24.904Z,8.46
2022-09-29T07:51:24.895Z,8.48
2022-09-29T07:52:25.077Z,8.51
2022-09-29T07:53:24.909Z,8.51
2022-09-29T07:54:29.305Z,8.51
2022-09-29T07:55:24.848Z,8.48
2022-09-29T07:56:24.828Z,8.45
2022-09-29T07:57:24.816Z,8.46
2022-09-29T07:58:24.806Z,8.48
2022-09-29T07:59:24.800Z,8.49
2022-09-29T08:00:24.787Z,8.53
2022-09-29T08:01:24.855Z,8.56
2022-09-29T08:02:24.846Z,8.58
2022-09-29T08:03:24.726Z,8.56
2022-09-29T08:04:24.718Z,8.55
2022-09-29T08:05:24.715Z,8.52
2022-09-29T08:06:24.688Z,8.51
2022-09-29T08:07:24.695Z,8.53
2022-09-29T08:08:24.707Z,8.52
2022-09-29T08:09:34.153Z,8.52
2022-09-29T08:10:25.675Z,8.53
2022-09-29T08:11:30.979Z,8.52
2022-09-29T08:12:33.409Z,8.53
2022-09-29T08:13:25.656Z,8.53
2022-09-29T08:14:24.586Z,8.53
2022-09-29T08:15:24.580Z,8.58
2022-09-29T08:16:24.664Z,8.53
2022-09-29T08:17:24.551Z,8.49
2022-09-29T08:18:24.541Z,8.46
2022-09-29T08:19:24.525Z,8.46
2022-09-29T08:20:24.513Z,8.48
2022-09-29T08:21:24.502Z,8.48
2022-09-29T08:22:24.486Z,8.52
2022-09-29T08:23:24.470Z,8.56
2022-09-29T08:24:24.667Z,8.61
2022-09-29T08:25:24.472Z,8.64
2022-09-29T08:26:38.780Z,8.67
2022-09-29T08:27:25.454Z,8.71
2022-09-29T08:28:31.746Z,8.73
2022-09-29T08:29:25.823Z,8.70
2022-09-29T08:30:24.387Z,8.70
2022-09-29T08:31:24.452Z,8.74
2022-09-29T08:32:24.358Z,8.78
2022-09-29T08:33:24.353Z,8.79
2022-09-29T08:34:24.333Z,8.81
2022-09-29T08:35:24.324Z,8.82
2022-09-29T08:36:24.309Z,8.85
2022-09-29T08:37:24.288Z,8.87
2022-09-29T08:38:24.285Z,8.87
2022-09-29T08:39:24.266Z,8.89
2022-09-29T08:40:24.316Z,8.92
2022-09-29T08:41:24.270Z,8.92
2022-09-29T08:42:24.227Z,8.94
2022-09-29T08:43:33.516Z,8.92
2022-09-29T08:44:37.329Z,8.91
2022-09-29T08:45:25.220Z,8.91
2022-09-29T08:46:34.039Z,8.88
2022-09-29T08:47:30.000Z,8.88
2022-09-29T08:48:25.255Z,8.87
2022-09-29T08:49:32.621Z,8.89
2022-09-29T08:50:25.148Z,8.89
2022-09-29T08:51:34.167Z,8.89
2022-09-29T08:52:25.126Z,8.91
2022-09-29T08:53:28.765Z,8.92
2022-09-29T08:54:36.172Z,8.94
2022-09-29T08:55:25.084Z,8.97
2022-09-29T08:56:24.049Z,8.99
2022-09-29T08:57:24.057Z,9.00
2022-09-29T08:58:24.021Z,8.95
2022-09-29T08:59:24.014Z,8.94
2022-09-29T09:00:23.998Z,8.97
2022-09-29T09:01:24.038Z,8.99
2022-09-29T09:02:24.054Z,9.00
2022-09-29T09:03:23.962Z,9.02
2022-09-29T09:04:23.945Z,9.02
2022-09-29T09:05:23.934Z,9.04
2022-09-29T09:07:23.908Z,9.11
2022-09-29T09:08:23.911Z,9.10
2022-09-29T09:09:23.884Z,9.04
2022-09-29T09:10:23.870Z,8.99
2022-09-29T09:11:23.845Z,8.99
2022-09-29T09:12:23.846Z,8.97
2022-09-29T09:13:23.853Z,8.95
2022-09-29T09:14:23.821Z,8.99
2022-09-29T09:15:23.805Z,9.02
2022-09-29T09:16:23.972Z,9.06
2022-09-29T09:17:23.783Z,9.10
2022-09-29T09:18:23.763Z,9.16
2022-09-29T09:19:23.753Z,9.21
2022-09-29T09:20:23.744Z,9.25
2022-09-29T09:21:23.728Z,9.26
2022-09-29T09:22:23.718Z,9.28
2022-09-29T09:23:23.700Z,9.28
2022-09-29T09:24:24.788Z,9.26
2022-09-29T09:25:23.677Z,9.28
2022-09-29T09:26:23.673Z,9.32
2022-09-29T09:27:23.643Z,9.36
2022-09-29T09:28:23.637Z,9.37
2022-09-29T09:29:23.676Z,9.34
2022-09-29T09:30:23.810Z,9.28
2022-09-29T09:31:23.603Z,9.25
2022-09-29T09:32:23.586Z,9.21
2022-09-29T09:33:31.019Z,9.22
2022-09-29T09:34:37.826Z,9.22
2022-09-29T09:35:24.592Z,9.18
2022-09-29T09:36:33.011Z,9.18
2022-09-29T09:37:24.556Z,9.21
2022-09-29T09:38:23.504Z,9.22
2022-09-29T09:39:23.493Z,9.26
2022-09-29T09:40:23.481Z,9.28
2022-09-29T09:41:23.469Z,9.29
2022-09-29T09:42:23.452Z,9.26
2022-09-29T09:43:23.442Z,9.19
2022-09-29T09:44:23.429Z,9.19
2022-09-29T09:45:23.587Z,9.16
2022-09-29T09:46:23.489Z,9.14
2022-09-29T09:47:23.389Z,9.14
2022-09-29T09:48:26.206Z,9.13
2022-09-29T09:49:23.362Z,9.19
2022-09-29T09:50:23.354Z,9.18
2022-09-29T09:51:23.338Z,9.21
2022-09-29T09:52:23.312Z,9.21
2022-09-29T09:53:23.312Z,9.16
2022-09-29T09:54:23.501Z,9.13
2022-09-29T09:55:23.283Z,9.11
2022-09-29T09:56:23.274Z,9.11
2022-09-29T09:57:23.265Z,9.16
2022-09-29T09:58:23.285Z,9.18
2022-09-29T09:59:23.238Z,9.16
2022-09-29T10:00:23.217Z,9.19
2022-09-29T10:01:23.290Z,9.19
2022-09-29T10:02:23.271Z,9.25
2022-09-29T10:03:23.179Z,9.25
2022-09-29T10:04:23.172Z,9.31
2022-09-29T10:05:23.147Z,9.32
2022-09-29T10:06:23.143Z,9.36
2022-09-29T10:07:23.331Z,9.36
2022-09-29T10:08:23.120Z,9.39
2022-09-29T10:09:23.371Z,9.46
2022-09-29T10:10:23.084Z,9.48
2022-09-29T10:11:23.075Z,9.54
2022-09-29T10:12:23.064Z,9.55
2022-09-29T10:13:23.051Z,9.59
2022-09-29T10:14:23.049Z,9.65
2022-09-29T10:15:23.026Z,9.68
2022-09-29T10:16:23.073Z,9.74
2022-09-29T10:17:23.112Z,9.77
2022-09-29T10:18:22.991Z,9.76
2022-09-29T10:19:22.974Z,9.73
2022-09-29T10:20:22.962Z,9.72
2022-09-29T10:21:22.956Z,9.73
2022-09-29T10:22:22.957Z,9.74
2022-09-29T10:23:23.123Z,9.73
2022-09-29T10:24:22.921Z,9.76
2022-09-29T10:25:22.898Z,9.79
2022-09-29T10:26:22.886Z,9.80
2022-09-29T10:27:24.282Z,9.83
2022-09-29T10:28:22.858Z,9.80
2022-09-29T10:29:22.843Z,9.79
2022-09-29T10:30:22.911Z,9.77
2022-09-29T10:31:22.820Z,9.77
2022-09-29T10:32:22.812Z,9.80
2022-09-29T10:33:22.878Z,9.82
2022-09-29T10:34:22.795Z,9.83
2022-09-29T10:35:22.770Z,9.87
2022-09-29T10:36:22.755Z,9.82
2022-09-29T10:37:22.746Z,9.83
2022-09-29T10:38:22.734Z,9.86
2022-09-29T10:39:22.716Z,9.87
2022-09-29T10:40:22.709Z,9.86
2022-09-29T10:41:22.693Z,9.84
2022-09-29T10:42:22.676Z,9.86
2022-09-29T10:43:22.669Z,9.94
2022-09-29T10:44:22.688Z,9.99
2022-09-29T10:45:22.835Z,10.05
2022-09-29T10:46:22.682Z,9.99
2022-09-29T10:47:22.624Z,9.98
2022-09-29T10:48:22.602Z,9.98
2022-09-29T10:49:22.613Z,10.04
2022-09-29T10:50:22.579Z,10.09
2022-09-29T10:51:22.561Z,10.07
2022-09-29T10:52:22.548Z,10.13
2022-09-29T10:53:22.542Z,10.17
2022-09-29T10:54:22.720Z,10.15
2022-09-29T10:55:22.518Z,10.15
2022-09-29T10:56:22.523Z,10.17
2022-09-29T10:57:22.494Z,10.22
2022-09-29T10:58:44.137Z,10.25
2022-09-29T10:59:23.493Z,10.26
2022-09-29T11:00:22.469Z,10.30
2022-09-29T11:01:22.521Z,10.35
2022-09-29T11:02:22.505Z,10.37
2022-09-29T11:03:22.412Z,10.37
2022-09-29T11:04:22.442Z,10.35
2022-09-29T11:05:22.403Z,10.38
2022-09-29T11:06:22.376Z,10.38
2022-09-29T11:07:22.356Z,10.40
2022-09-29T11:08:22.344Z,10.42
2022-09-29T11:09:22.614Z,10.42
2022-09-29T11:10:22.318Z,10.44
2022-09-29T11:11:22.303Z,10.44
2022-09-29T11:12:22.284Z,10.46
2022-09-29T11:13:22.300Z,10.49
2022-09-29T11:14:22.285Z,10.56
2022-09-29T11:15:22.470Z,10.57
2022-09-29T11:16:22.300Z,10.57
2022-09-29T11:17:22.221Z,10.57
2022-09-29T11:18:22.211Z,10.56
2022-09-29T11:19:22.201Z,10.57
2022-09-29T11:20:22.185Z,10.54
2022-09-29T11:21:22.325Z,10.51
2022-09-29T11:22:22.366Z,10.38
2022-09-29T11:23:22.160Z,10.41
2022-09-29T11:24:22.145Z,10.41
2022-09-29T11:25:22.121Z,10.34
2022-09-29T11:26:22.113Z,10.35
2022-09-29T11:27:22.097Z,10.34
2022-09-29T11:28:22.087Z,10.35
2022-09-29T11:29:22.065Z,10.37
2022-09-29T11:30:22.089Z,10.40
2022-09-29T11:31:22.047Z,10.38
2022-09-29T11:32:22.034Z,10.35
2022-09-29T11:33:22.021Z,10.37
2022-09-29T11:34:22.021Z,10.40
2022-09-29T11:35:22.393Z,10.42
2022-09-29T11:36:22.584Z,10.44
2022-09-29T11:37:21.997Z,10.46
2022-09-29T11:38:21.965Z,10.44
2022-09-29T11:39:21.947Z,10.51
2022-09-29T11:40:21.927Z,10.53
2022-09-29T11:41:21.924Z,10.51
2022-09-29T11:42:21.909Z,10.48
2022-09-29T11:43:21.890Z,10.46
2022-09-29T11:44:21.882Z,10.42
2022-09-29T11:45:21.861Z,10.38
2022-09-29T11:46:21.916Z,10.40
2022-09-29T11:47:21.835Z,10.40
2022-09-29T11:48:24.095Z,10.37
2022-09-29T11:49:21.891Z,10.38
2022-09-29T11:50:22.001Z,10.41
2022-09-29T11:51:21.788Z,10.41
2022-09-29T11:52:21.767Z,10.41
2022-09-29T11:53:21.781Z,10.46
2022-09-29T11:54:21.757Z,10.46
2022-09-29T11:55:21.738Z,10.42
2022-09-29T11:56:21.719Z,10.41
2022-09-29T11:57:21.712Z,10.42
2022-09-29T11:58:21.698Z,10.49
2022-09-29T11:59:21.775Z,10.53
2022-09-29T12:00:21.668Z,10.53
2022-09-29T12:01:21.657Z,10.51
2022-09-29T12:02:21.986Z,10.46
2022-09-29T12:03:21.726Z,10.49
2022-09-29T12:04:21.622Z,10.46
2022-09-29T12:05:21.608Z,10.46
2022-09-29T12:06:21.594Z,10.41
2022-09-29T12:07:21.583Z,10.41
2022-09-29T12:08:21.571Z,10.37
2022-09-29T12:09:21.770Z,10.35
2022-09-29T12:10:25.766Z,10.37
2022-09-29T12:11:44.427Z,10.41
2022-09-29T12:12:24.393Z,10.48
2022-09-29T12:13:21.511Z,10.57
2022-09-29T12:14:21.645Z,10.64
2022-09-29T12:15:21.600Z,10.71
2022-09-29T12:16:21.563Z,10.72
2022-09-29T12:17:21.454Z,10.78
2022-09-29T12:18:21.441Z,10.78
2022-09-29T12:19:21.634Z,10.75
2022-09-29T12:20:21.425Z,10.75
2022-09-29T12:21:21.434Z,10.68
2022-09-29T12:22:21.388Z,10.69
2022-09-29T12:23:21.377Z,10.68
2022-09-29T12:24:21.513Z,10.63
2022-09-29T12:25:21.369Z,10.64
2022-09-29T12:26:21.331Z,10.61
2022-09-29T12:27:21.317Z,10.59
2022-09-29T12:28:21.316Z,10.60
2022-09-29T12:29:21.295Z,10.60
2022-09-29T12:30:21.292Z,10.57
2022-09-29T12:31:21.382Z,10.57
2022-09-29T12:32:21.257Z,10.57
2022-09-29T12:33:21.246Z,10.54
2022-09-29T12:34:21.376Z,10.51
2022-09-29T12:35:21.219Z,10.46
2022-09-29T12:36:21.209Z,10.49
2022-09-29T12:37:21.201Z,10.51
2022-09-29T12:38:21.187Z,10.51
2022-09-29T12:39:21.169Z,10.53
2022-09-29T12:40:21.154Z,10.53
2022-09-29T12:41:21.160Z,10.53
2022-09-29T12:42:21.134Z,10.51
2022-09-29T12:43:21.123Z,10.48
2022-09-29T12:44:21.238Z,10.53
2022-09-29T12:45:21.095Z,10.59
2022-09-29T12:46:21.149Z,10.57
2022-09-29T12:47:21.064Z,10.56
2022-09-29T12:48:21.053Z,10.56
2022-09-29T12:49:21.048Z,10.61
2022-09-29T12:50:21.030Z,10.63
2022-09-29T12:51:21.014Z,10.63
2022-09-29T12:52:20.998Z,10.63
2022-09-29T12:53:20.993Z,10.68
2022-09-29T12:54:21.060Z,10.74
2022-09-29T12:55:20.962Z,10.78
2022-09-29T12:56:20.948Z,10.79
2022-09-29T12:57:20.962Z,10.81
2022-09-29T12:58:20.922Z,10.81
2022-09-29T12:59:20.914Z,10.82
2022-09-29T13:00:20.916Z,10.86
2022-09-29T13:01:20.979Z,10.84
2022-09-29T13:02:20.916Z,10.82
2022-09-29T13:03:20.863Z,10.84
2022-09-29T13:04:20.864Z,10.81
2022-09-29T13:05:20.837Z,10.79
2022-09-29T13:06:21.015Z,10.75
2022-09-29T13:07:20.809Z,10.75
2022-09-29T13:08:20.787Z,10.76
2022-09-29T13:09:21.153Z,10.78
2022-09-29T13:10:20.768Z,10.74
2022-09-29T13:11:20.950Z,10.72
2022-09-29T13:12:20.748Z,10.75
2022-09-29T13:13:20.824Z,10.76
2022-09-29T13:14:20.723Z,10.75